createdAt,value
2022-08-05T00:00:50.036Z,1005.76
2022-08-05T00:01:48.491Z,1005.71
2022-08-05T00:02:51.170Z,1005.69
2022-08-05T00:03:46.417Z,1005.66
2022-08-05T00:04:46.431Z,1005.65
2022-08-05T00:06:04.680Z,1005.67
2022-08-05T00:06:47.198Z,1005.70
2022-08-05T00:07:59.938Z,1005.67
2022-08-05T00:08:46.532Z,1005.64
2022-08-05T00:09:46.557Z,1005.62
2022-08-05T00:10:46.578Z,1005.58
2022-08-05T00:11:49.134Z,1005.56
2022-08-05T00:12:55.825Z,1005.56
2022-08-05T00:13:46.651Z,1005.52
2022-08-05T00:14:46.677Z,1005.55
2022-08-05T00:15:57.858Z,1005.57
2022-08-05T00:16:53.107Z,1005.54
2022-08-05T00:17:46.750Z,1005.55
2022-08-05T00:18:46.776Z,1005.57
2022-08-05T00:19:57.430Z,1005.52
2022-08-05T00:20:46.829Z,1005.53
2022-08-05T00:21:46.849Z,1005.54
2022-08-05T00:22:47.209Z,1005.55
2022-08-05T00:23:53.517Z,1005.51
2022-08-05T00:24:46.925Z,1005.53
2022-08-05T00:25:46.948Z,1005.47
2022-08-05T00:26:51.746Z,1005.49
2022-08-05T00:27:47.006Z,1005.50
2022-08-05T00:28:47.022Z,1005.49
2022-08-05T00:29:47.049Z,1005.52
2022-08-05T00:30:47.073Z,1005.49
2022-08-05T00:32:11.134Z,1005.51
2022-08-05T00:32:47.122Z,1005.50
2022-08-05T00:34:53.412Z,1005.55
2022-08-05T00:35:04.623Z,1005.59
2022-08-05T00:36:15.156Z,1005.53
2022-08-05T00:37:10.960Z,1005.58
2022-08-05T00:37:53.117Z,1005.58
2022-08-05T00:38:47.268Z,1005.64
2022-08-05T00:39:58.089Z,1005.63
2022-08-05T00:40:52.011Z,1005.67
2022-08-05T00:41:55.036Z,1005.68
2022-08-05T00:42:49.188Z,1005.71
2022-08-05T00:43:49.781Z,1005.70
2022-08-05T00:44:47.414Z,1005.71
2022-08-05T00:45:47.440Z,1005.75
2022-08-05T00:46:47.466Z,1005.80
2022-08-05T00:47:57.001Z,1005.78
2022-08-05T00:48:50.445Z,1005.80
2022-08-05T00:49:51.540Z,1005.83
2022-08-05T00:50:47.561Z,1005.91
2022-08-05T00:51:51.031Z,1006.00
2022-08-05T00:52:47.610Z,1006.06
2022-08-05T00:54:02.620Z,1006.05
2022-08-05T00:54:47.661Z,1005.89
2022-08-05T00:55:47.682Z,1005.86
2022-08-05T00:56:51.413Z,1005.85
2022-08-05T00:57:58.781Z,1005.88
2022-08-05T00:58:47.757Z,1005.92
2022-08-05T00:59:47.780Z,1005.98
2022-08-05T01:00:47.879Z,1005.96
2022-08-05T01:01:48.846Z,1005.95
2022-08-05T01:02:47.853Z,1005.98
2022-08-05T01:03:49.978Z,1005.97
2022-08-05T01:04:50.313Z,1005.92
2022-08-05T01:05:47.924Z,1005.89
2022-08-05T01:06:48.820Z,1005.87
2022-08-05T01:08:30.677Z,1005.85
2022-08-05T01:08:47.998Z,1005.89
2022-08-05T01:09:55.504Z,1005.91
2022-08-05T01:10:52.454Z,1005.92
2022-08-05T01:11:48.069Z,1005.98
2022-08-05T01:12:54.358Z,1006.04
2022-08-05T01:13:58.951Z,1006.08
2022-08-05T01:14:48.143Z,1006.07
2022-08-05T01:15:48.171Z,1006.05
2022-08-05T01:16:48.190Z,1006.03
2022-08-05T01:17:53.836Z,1006.04
2022-08-05T01:18:48.263Z,1006.07
2022-08-05T01:20:00.740Z,1006.04
2022-08-05T01:20:48.286Z,1005.96
2022-08-05T01:21:50.561Z,1005.96
2022-08-05T01:22:48.339Z,1005.98
2022-08-05T01:23:53.034Z,1006.00
2022-08-05T01:24:48.387Z,1006.01
2022-08-05T01:25:53.260Z,1006.04
2022-08-05T01:26:48.437Z,1006.14
2022-08-05T01:27:55.356Z,1006.15
2022-08-05T01:28:48.479Z,1006.19
2022-08-05T01:29:48.504Z,1006.16
2022-08-05T01:30:53.815Z,1006.07
2022-08-05T01:31:48.550Z,1006.02
2022-08-05T01:32:48.586Z,1006.02
2022-08-05T01:33:48.976Z,1005.98
2022-08-05T01:34:48.623Z,1006.01
2022-08-05T01:35:51.318Z,1006.07
2022-08-05T01:36:48.671Z,1006.16
2022-08-05T01:37:48.695Z,1006.15
2022-08-05T01:38:49.898Z,1006.08
2022-08-05T01:39:48.775Z,1005.96
2022-08-05T01:40:48.767Z,1005.90
2022-08-05T01:41:48.789Z,1005.91
2022-08-05T01:42:48.823Z,1005.92
2022-08-05T01:43:48.879Z,1006.02
2022-08-05T01:44:54.240Z,1006.08
2022-08-05T01:45:56.801Z,1006.16
2022-08-05T01:46:48.918Z,1006.09
2022-08-05T01:47:48.932Z,1005.99
2022-08-05T01:48:49.831Z,1005.91
2022-08-05T01:50:01.552Z,1005.94
2022-08-05T01:50:51.051Z,1005.95
2022-08-05T01:51:50.985Z,1005.96
2022-08-05T01:52:49.664Z,1005.99
2022-08-05T01:53:57.036Z,1006.02
2022-08-05T01:54:49.099Z,1005.98
2022-08-05T01:55:49.128Z,1005.93
2022-08-05T01:58:11.438Z,1005.88
2022-08-05T01:58:18.881Z,1005.84
2022-08-05T01:58:49.375Z,1005.80
2022-08-05T01:59:49.218Z,1005.80
2022-08-05T02:00:49.241Z,1005.84
2022-08-05T02:01:49.334Z,1005.86
2022-08-05T02:02:53.685Z,1005.86
2022-08-05T02:03:49.313Z,1005.85
2022-08-05T02:04:49.683Z,1005.87
2022-08-05T02:05:49.359Z,1005.84
2022-08-05T02:06:49.385Z,1005.82
2022-08-05T02:07:59.997Z,1005.79
2022-08-05T02:08:58.193Z,1005.78
2022-08-05T02:09:49.454Z,1005.83
2022-08-05T02:10:49.478Z,1005.82
2022-08-05T02:11:52.470Z,1005.82
2022-08-05T02:12:50.904Z,1005.81
2022-08-05T02:13:53.639Z,1005.76
2022-08-05T02:14:49.579Z,1005.77
2022-08-05T02:15:49.598Z,1005.79
2022-08-05T02:16:52.479Z,1005.78
2022-08-05T02:18:31.053Z,1005.75
2022-08-05T02:18:49.668Z,1005.75
2022-08-05T02:19:49.692Z,1005.76
2022-08-05T02:20:49.715Z,1005.78
2022-08-05T02:21:49.740Z,1005.77
2022-08-05T02:22:49.771Z,1005.81
2022-08-05T02:23:49.789Z,1005.83
2022-08-05T02:24:51.344Z,1005.89
2022-08-05T02:25:50.571Z,1005.83
2022-08-05T02:26:53.716Z,1005.85
2022-08-05T02:27:59.304Z,1005.83
2022-08-05T02:28:49.907Z,1005.83
2022-08-05T02:29:58.402Z,1005.82
2022-08-05T02:30:54.225Z,1005.82
2022-08-05T02:31:49.976Z,1005.90
2022-08-05T02:32:50.003Z,1005.89
2022-08-05T02:33:50.027Z,1005.92
2022-08-05T02:34:54.531Z,1005.91
2022-08-05T02:35:58.885Z,1005.92
2022-08-05T02:36:50.093Z,1005.92
2022-08-05T02:37:53.957Z,1005.96
2022-08-05T02:38:52.876Z,1005.98
2022-08-05T02:39:51.677Z,1005.89
2022-08-05T02:40:50.190Z,1005.84
2022-08-05T02:42:00.592Z,1005.88
2022-08-05T02:42:53.027Z,1005.86
2022-08-05T02:44:06.429Z,1005.85
2022-08-05T02:44:50.288Z,1005.82
2022-08-05T02:45:52.165Z,1005.88
2022-08-05T02:46:58.836Z,1005.90
2022-08-05T02:48:06.688Z,1005.90
2022-08-05T02:48:50.380Z,1005.85
2022-08-05T02:49:50.404Z,1005.82
2022-08-05T02:50:50.430Z,1005.86
2022-08-05T02:52:03.094Z,1005.81
2022-08-05T02:52:50.474Z,1005.81
2022-08-05T02:53:50.498Z,1005.79
2022-08-05T02:54:50.791Z,1005.83
2022-08-05T02:55:54.093Z,1005.81
2022-08-05T02:56:50.570Z,1005.74
2022-08-05T02:58:10.886Z,1005.77
2022-08-05T02:58:51.166Z,1005.78
2022-08-05T02:59:51.959Z,1005.74
2022-08-05T03:00:50.664Z,1005.73
2022-08-05T03:01:50.772Z,1005.71
2022-08-05T03:02:50.713Z,1005.66
2022-08-05T03:04:08.892Z,1005.65
2022-08-05T03:04:53.272Z,1005.67
2022-08-05T03:06:54.363Z,1005.65
2022-08-05T03:06:54.923Z,1005.63
2022-08-05T03:08:06.706Z,1005.63
2022-08-05T03:08:52.310Z,1005.64
2022-08-05T03:09:51.953Z,1005.67
2022-08-05T03:11:53.575Z,1005.62
2022-08-05T03:11:54.545Z,1005.65
2022-08-05T03:12:51.819Z,1005.65
2022-08-05T03:14:03.383Z,1005.55
2022-08-05T03:14:51.000Z,1005.49
2022-08-05T03:15:51.020Z,1005.46
2022-08-05T03:16:53.301Z,1005.48
2022-08-05T03:17:54.216Z,1005.47
2022-08-05T03:18:51.093Z,1005.47
2022-08-05T03:19:51.119Z,1005.45
2022-08-05T03:20:51.139Z,1005.49
2022-08-05T03:21:51.167Z,1005.45
2022-08-05T03:22:51.189Z,1005.50
2022-08-05T03:23:51.212Z,1005.48
2022-08-05T03:24:52.255Z,1005.52
2022-08-05T03:26:04.922Z,1005.53
2022-08-05T03:26:51.285Z,1005.49
2022-08-05T03:27:59.370Z,1005.55
2022-08-05T03:28:51.333Z,1005.51
2022-08-05T03:30:08.237Z,1005.49
2022-08-05T03:30:51.379Z,1005.53
2022-08-05T03:31:57.242Z,1005.51
2022-08-05T03:32:51.426Z,1005.49
2022-08-05T03:33:53.180Z,1005.46
2022-08-05T03:34:51.666Z,1005.48
2022-08-05T03:35:51.613Z,1005.51
2022-08-05T03:36:51.524Z,1005.55
2022-08-05T03:37:51.548Z,1005.58
2022-08-05T03:38:52.557Z,1005.60
2022-08-05T03:39:59.225Z,1005.59
2022-08-05T03:40:51.669Z,1005.61
2022-08-05T03:41:52.622Z,1005.58
2022-08-05T03:42:52.670Z,1005.58
2022-08-05T03:44:08.462Z,1005.60
2022-08-05T03:44:51.713Z,1005.58
2022-08-05T03:45:58.117Z,1005.60
2022-08-05T03:46:51.759Z,1005.63
2022-08-05T03:47:51.782Z,1005.64
2022-08-05T03:48:51.815Z,1005.66
2022-08-05T03:49:52.393Z,1005.70
2022-08-05T03:50:51.857Z,1005.68
2022-08-05T03:52:49.231Z,1005.72
2022-08-05T03:55:34.229Z,1005.72
2022-08-05T03:55:50.143Z,1005.70
2022-08-05T03:55:53.361Z,1005.71
2022-08-05T03:56:09.806Z,1005.75
2022-08-05T03:56:51.998Z,1005.76
2022-08-05T03:57:52.023Z,1005.80
2022-08-05T03:58:52.045Z,1005.81
2022-08-05T03:59:54.934Z,1005.82
2022-08-05T04:00:52.582Z,1005.85
2022-08-05T04:01:52.320Z,1005.81
2022-08-05T04:02:58.911Z,1005.78
2022-08-05T04:04:08.822Z,1005.81
2022-08-05T04:04:52.190Z,1005.85
2022-08-05T04:05:52.215Z,1005.83
2022-08-05T04:06:52.238Z,1005.79
2022-08-05T04:07:58.177Z,1005.76
2022-08-05T04:08:52.284Z,1005.76
2022-08-05T04:09:53.128Z,1005.75
2022-08-05T04:10:52.333Z,1005.74
2022-08-05T04:11:52.430Z,1005.71
2022-08-05T04:12:52.381Z,1005.74
2022-08-05T04:13:53.391Z,1005.74
2022-08-05T04:14:52.430Z,1005.79
2022-08-05T04:16:02.740Z,1005.76
2022-08-05T04:16:52.477Z,1005.77
2022-08-05T04:17:56.069Z,1005.76
2022-08-05T04:18:54.322Z,1005.73
2022-08-05T04:19:54.499Z,1005.74
2022-08-05T04:20:52.572Z,1005.73
2022-08-05T04:22:09.957Z,1005.72
2022-08-05T04:22:52.625Z,1005.73
2022-08-05T04:24:04.694Z,1005.71
2022-08-05T04:24:53.149Z,1005.76
2022-08-05T04:25:57.085Z,1005.78
2022-08-05T04:26:52.718Z,1005.78
2022-08-05T04:27:56.783Z,1005.82
2022-08-05T04:28:52.767Z,1005.83
2022-08-05T04:29:52.803Z,1005.88
2022-08-05T04:30:52.815Z,1005.87
2022-08-05T04:31:52.838Z,1005.91
2022-08-05T04:32:52.865Z,1005.88
2022-08-05T04:34:17.376Z,1005.90
2022-08-05T04:34:52.909Z,1005.91
2022-08-05T04:36:16.814Z,1005.93
2022-08-05T04:36:52.958Z,1006.00
2022-08-05T04:38:01.669Z,1005.97
2022-08-05T04:38:53.007Z,1005.98
2022-08-05T04:39:53.135Z,1005.98
2022-08-05T04:40:53.057Z,1006.01
2022-08-05T04:41:53.080Z,1006.02
2022-08-05T04:42:53.106Z,1005.96
2022-08-05T04:43:53.131Z,1006.04
2022-08-05T04:44:53.154Z,1006.03
2022-08-05T04:45:55.214Z,1006.06
2022-08-05T04:46:53.204Z,1006.00
2022-08-05T04:47:53.227Z,1005.99
2022-08-05T04:48:53.251Z,1005.96
2022-08-05T04:50:01.712Z,1005.97
2022-08-05T04:51:01.836Z,1005.90
2022-08-05T04:52:00.222Z,1005.88
2022-08-05T04:52:53.348Z,1005.89
2022-08-05T04:53:53.373Z,1005.87
2022-08-05T04:54:53.403Z,1005.87
2022-08-05T04:56:33.626Z,1005.91
2022-08-05T04:56:57.431Z,1005.90
2022-08-05T04:57:53.825Z,1005.94
2022-08-05T04:58:53.500Z,1005.93
2022-08-05T04:59:53.525Z,1005.94
2022-08-05T05:00:53.581Z,1005.97
2022-08-05T05:02:07.946Z,1005.99
2022-08-05T05:02:53.635Z,1006.02
2022-08-05T05:03:53.622Z,1006.03
2022-08-05T05:05:02.210Z,1006.03
2022-08-05T05:06:35.923Z,1006.07
2022-08-05T05:06:57.689Z,1006.08
2022-08-05T05:07:56.559Z,1006.08
2022-08-05T05:08:53.750Z,1006.14
2022-08-05T05:09:53.788Z,1006.15
2022-08-05T05:10:56.506Z,1006.16
2022-08-05T05:11:56.852Z,1006.20
2022-08-05T05:12:53.844Z,1006.12
2022-08-05T05:13:55.292Z,1006.14
2022-08-05T05:14:53.894Z,1006.12
2022-08-05T05:15:57.576Z,1006.17
2022-08-05T05:16:54.482Z,1006.11
2022-08-05T05:17:56.420Z,1006.14
2022-08-05T05:19:17.742Z,1006.15
2022-08-05T05:19:54.030Z,1006.22
2022-08-05T05:20:54.046Z,1006.22
2022-08-05T05:21:55.504Z,1006.23
2022-08-05T05:22:54.098Z,1006.26
2022-08-05T05:24:03.763Z,1006.32
2022-08-05T05:24:57.634Z,1006.40
2022-08-05T05:25:54.174Z,1006.49
2022-08-05T05:26:54.197Z,1006.58
2022-08-05T05:27:55.786Z,1006.68
2022-08-05T05:28:54.247Z,1006.81
2022-08-05T05:30:04.877Z,1006.84
2022-08-05T05:30:54.299Z,1006.89
2022-08-05T05:31:54.323Z,1006.90
2022-08-05T05:32:54.349Z,1006.88
2022-08-05T05:33:59.157Z,1006.85
2022-08-05T05:34:54.402Z,1006.80
2022-08-05T05:35:54.426Z,1006.76
2022-08-05T05:36:54.451Z,1006.76
2022-08-05T05:37:59.413Z,1006.72
2022-08-05T05:38:54.538Z,1006.65
2022-08-05T05:39:54.605Z,1006.57
2022-08-05T05:40:54.555Z,1006.60
2022-08-05T05:41:54.707Z,1006.64
2022-08-05T05:42:54.606Z,1006.64
2022-08-05T05:43:58.186Z,1006.72
2022-08-05T05:44:54.655Z,1006.74
2022-08-05T05:45:54.682Z,1006.81
2022-08-05T05:46:54.710Z,1006.77
2022-08-05T05:48:06.350Z,1006.75
2022-08-05T05:48:54.759Z,1006.72
2022-08-05T05:49:56.956Z,1006.76
2022-08-05T05:50:54.809Z,1006.79
2022-08-05T05:51:54.898Z,1006.83
2022-08-05T05:52:54.860Z,1006.98
2022-08-05T05:53:58.918Z,1007.01
2022-08-05T05:54:54.913Z,1007.11
2022-08-05T05:56:00.771Z,1007.26
2022-08-05T05:56:54.962Z,1007.31
2022-08-05T05:57:54.989Z,1007.39
2022-08-05T05:58:55.013Z,1007.43
2022-08-05T05:59:55.038Z,1007.34
2022-08-05T06:00:55.064Z,1007.38
2022-08-05T06:01:57.308Z,1007.33
2022-08-05T06:02:55.115Z,1007.36
2022-08-05T06:04:02.114Z,1007.40
2022-08-05T06:04:55.197Z,1007.39
2022-08-05T06:05:55.658Z,1007.36
2022-08-05T06:06:55.215Z,1007.37
2022-08-05T06:08:01.272Z,1007.46
2022-08-05T06:08:55.267Z,1007.53
2022-08-05T06:10:00.933Z,1007.61
2022-08-05T06:10:55.319Z,1007.57
2022-08-05T06:11:59.216Z,1007.57
2022-08-05T06:12:55.368Z,1007.67
2022-08-05T06:13:55.584Z,1007.67
2022-08-05T06:14:55.421Z,1007.67
2022-08-05T06:16:28.977Z,1007.69
2022-08-05T06:16:55.475Z,1007.80
2022-08-05T06:17:55.499Z,1007.83
2022-08-05T06:18:55.524Z,1007.97
2022-08-05T06:19:57.140Z,1007.84
2022-08-05T06:20:55.569Z,1007.88
2022-08-05T06:21:55.601Z,1007.94
2022-08-05T06:22:55.630Z,1007.87
2022-08-05T06:23:55.648Z,1007.86
2022-08-05T06:24:55.690Z,1007.68
2022-08-05T06:26:12.584Z,1007.69
2022-08-05T06:26:55.725Z,1007.68
2022-08-05T06:28:11.370Z,1007.65
2022-08-05T06:28:55.776Z,1007.61
2022-08-05T06:30:04.483Z,1007.59
2022-08-05T06:30:55.826Z,1007.62
2022-08-05T06:31:55.850Z,1007.57
2022-08-05T06:32:55.879Z,1007.58
2022-08-05T06:34:07.590Z,1007.63
2022-08-05T06:34:56.544Z,1007.65
2022-08-05T06:36:09.338Z,1007.66
2022-08-05T06:36:57.934Z,1007.54
2022-08-05T06:37:59.025Z,1007.57
2022-08-05T06:38:56.056Z,1007.57
2022-08-05T06:39:56.053Z,1007.59
2022-08-05T06:40:56.080Z,1007.61
2022-08-05T06:41:56.105Z,1007.59
2022-08-05T06:42:56.132Z,1007.64
2022-08-05T06:44:00.303Z,1007.65
2022-08-05T06:44:56.184Z,1007.64
2022-08-05T06:46:06.855Z,1007.68
2022-08-05T06:46:56.254Z,1007.70
2022-08-05T06:48:47.060Z,1007.71
2022-08-05T06:48:59.285Z,1007.71
2022-08-05T06:50:00.481Z,1007.70
2022-08-05T06:50:56.337Z,1007.72
2022-08-05T06:51:56.364Z,1007.70
2022-08-05T06:53:03.617Z,1007.69
2022-08-05T06:53:56.419Z,1007.75
2022-08-05T06:54:56.445Z,1007.63
2022-08-05T06:55:56.471Z,1007.61
2022-08-05T06:57:57.130Z,1007.61
2022-08-05T06:58:02.784Z,1007.58
2022-08-05T06:58:56.553Z,1007.58
2022-08-05T06:59:58.346Z,1007.61
2022-08-05T07:00:56.630Z,1007.64
2022-08-05T07:01:56.625Z,1007.66
2022-08-05T07:02:56.654Z,1007.75
2022-08-05T07:03:56.678Z,1007.73
2022-08-05T07:04:56.706Z,1007.80
2022-08-05T07:05:57.075Z,1007.82
2022-08-05T07:06:56.763Z,1007.74
2022-08-05T07:07:56.786Z,1007.77
2022-08-05T07:08:59.077Z,1007.79
2022-08-05T07:09:58.456Z,1007.81
2022-08-05T07:10:56.866Z,1007.92
2022-08-05T07:11:56.894Z,1007.95
2022-08-05T07:12:56.925Z,1007.88
2022-08-05T07:13:59.815Z,1007.97
2022-08-05T07:14:56.977Z,1007.99
2022-08-05T07:16:01.123Z,1008.09
2022-08-05T07:18:01.085Z,1008.13
2022-08-05T07:18:07.419Z,1008.13
2022-08-05T07:18:57.085Z,1008.14
2022-08-05T07:20:57.136Z,1008.20
2022-08-05T07:22:00.000Z,1008.25
2022-08-05T07:22:57.191Z,1008.25
2022-08-05T07:23:57.222Z,1008.25
2022-08-05T07:24:57.245Z,1008.18
2022-08-05T07:25:57.275Z,1008.19
2022-08-05T07:26:57.300Z,1008.32
2022-08-05T07:28:02.288Z,1008.21
2022-08-05T07:28:57.355Z,1008.09
2022-08-05T07:30:27.109Z,1008.13
2022-08-05T07:30:57.410Z,1008.11
2022-08-05T07:31:57.442Z,1008.17
2022-08-05T07:32:57.551Z,1008.09
2022-08-05T07:33:57.489Z,1008.06
2022-08-05T07:34:57.873Z,1007.99
2022-08-05T07:36:19.498Z,1008.00
2022-08-05T07:36:57.568Z,1007.95
2022-08-05T07:37:57.593Z,1007.90
2022-08-05T07:38:57.626Z,1007.96
2022-08-05T07:40:25.890Z,1007.94
2022-08-05T07:41:00.339Z,1007.82
2022-08-05T07:42:13.130Z,1007.89
2022-08-05T07:42:57.729Z,1007.86
2022-08-05T07:43:57.757Z,1007.85
2022-08-05T07:44:57.780Z,1007.91
2022-08-05T07:45:58.528Z,1007.91
2022-08-05T07:46:57.832Z,1007.96
2022-08-05T07:47:57.908Z,1007.93
2022-08-05T07:49:02.810Z,1007.97
2022-08-05T07:49:57.911Z,1007.87
2022-08-05T07:50:57.939Z,1007.86
2022-08-05T07:51:57.970Z,1007.76
2022-08-05T07:52:57.990Z,1007.69
2022-08-05T07:53:58.029Z,1007.73
2022-08-05T07:54:58.077Z,1007.65
2022-08-05T07:56:06.330Z,1007.72
2022-08-05T07:57:02.393Z,1007.77
2022-08-05T07:58:03.032Z,1007.78
2022-08-05T07:58:59.179Z,1007.77
2022-08-05T07:59:58.172Z,1007.78
2022-08-05T08:00:58.216Z,1007.87
2022-08-05T08:01:58.302Z,1007.87
2022-08-05T08:03:13.331Z,1007.85
2022-08-05T08:03:58.272Z,1007.81
2022-08-05T08:04:58.298Z,1007.75
2022-08-05T08:05:58.322Z,1007.72
2022-08-05T08:06:58.347Z,1007.71
2022-08-05T08:07:59.458Z,1007.63
2022-08-05T08:08:58.398Z,1007.60
2022-08-05T08:09:58.429Z,1007.62
2022-08-05T08:10:58.449Z,1007.65
2022-08-05T08:12:00.086Z,1007.73
2022-08-05T08:12:58.778Z,1007.79
2022-08-05T08:14:00.878Z,1007.76
2022-08-05T08:15:02.678Z,1007.71
2022-08-05T08:16:49.693Z,1007.64
2022-08-05T08:16:58.595Z,1007.58
2022-08-05T08:17:58.625Z,1007.50
2022-08-05T08:18:58.649Z,1007.47
2022-08-05T08:20:43.057Z,1007.37
2022-08-05T08:21:02.201Z,1007.30
2022-08-05T08:21:58.722Z,1007.36
2022-08-05T08:22:58.748Z,1007.32
2022-08-05T08:24:02.938Z,1007.37
2022-08-05T08:25:03.356Z,1007.37
2022-08-05T08:26:00.216Z,1007.41
2022-08-05T08:26:58.851Z,1007.43
2022-08-05T08:27:58.875Z,1007.47
2022-08-05T08:28:59.604Z,1007.53
2022-08-05T08:30:06.088Z,1007.60
2022-08-05T08:30:58.948Z,1007.75
2022-08-05T08:31:58.974Z,1007.82
2022-08-05T08:33:02.490Z,1007.94
2022-08-05T08:33:59.025Z,1008.02
2022-08-05T08:34:59.049Z,1008.09
2022-08-05T08:36:29.605Z,1008.05
2022-08-05T08:37:03.124Z,1008.07
2022-08-05T08:37:59.126Z,1008.05
2022-08-05T08:38:59.167Z,1007.98
2022-08-05T08:39:59.286Z,1007.95
2022-08-05T08:40:59.203Z,1007.95
2022-08-05T08:42:02.078Z,1007.99
2022-08-05T08:45:17.799Z,1008.02
2022-08-05T08:45:21.152Z,1008.08
2022-08-05T08:45:24.182Z,1008.13
2022-08-05T08:45:59.340Z,1008.22
2022-08-05T08:46:59.357Z,1008.21
2022-08-05T08:48:12.397Z,1008.21
2022-08-05T08:50:04.021Z,1008.18
2022-08-05T08:50:22.627Z,1008.13
2022-08-05T08:51:21.987Z,1008.11
2022-08-05T08:52:05.623Z,1008.11
2022-08-05T08:52:59.508Z,1008.12
2022-08-05T08:53:59.532Z,1008.14
2022-08-05T08:54:59.571Z,1008.18
2022-08-05T08:56:03.202Z,1008.27
2022-08-05T08:56:59.610Z,1008.33
2022-08-05T08:57:59.639Z,1008.41
2022-08-05T08:58:59.668Z,1008.40
2022-08-05T08:59:59.684Z,1008.46
2022-08-05T09:00:59.789Z,1008.56
2022-08-05T09:02:01.184Z,1008.60
2022-08-05T09:02:59.760Z,1008.62
2022-08-05T09:03:59.785Z,1008.61
2022-08-05T09:05:17.695Z,1008.57
2022-08-05T09:06:09.005Z,1008.68
2022-08-05T09:06:59.859Z,1008.64
2022-08-05T09:07:59.885Z,1008.70
2022-08-05T09:08:59.912Z,1008.67
2022-08-05T09:09:59.935Z,1008.70
2022-08-05T09:10:59.967Z,1008.68
2022-08-05T09:12:04.642Z,1008.68
2022-08-05T09:13:05.028Z,1008.69
2022-08-05T09:14:09.381Z,1008.66
2022-08-05T09:15:04.767Z,1008.58
2022-08-05T09:16:00.093Z,1008.54
2022-08-05T09:17:00.111Z,1008.50
2022-08-05T09:18:00.137Z,1008.63
2022-08-05T09:19:00.162Z,1008.64
2022-08-05T09:20:02.807Z,1008.68
2022-08-05T09:21:00.211Z,1008.70
2022-08-05T09:22:22.687Z,1008.69
2022-08-05T09:23:05.259Z,1008.80
2022-08-05T09:24:02.436Z,1008.87
2022-08-05T09:25:00.327Z,1008.92
2022-08-05T09:26:06.093Z,1008.85
2022-08-05T09:27:00.376Z,1008.81
2022-08-05T09:28:04.931Z,1008.77
2022-08-05T09:29:00.435Z,1008.77
2022-08-05T09:30:04.647Z,1008.72
2022-08-05T09:31:00.469Z,1008.69
2022-08-05T09:32:41.065Z,1008.69
2022-08-05T09:33:00.523Z,1008.72
2022-08-05T09:34:00.559Z,1008.75
2022-08-05T09:35:00.600Z,1008.75
2022-08-05T09:36:02.682Z,1008.72
2022-08-05T09:37:00.627Z,1008.77
2022-08-05T09:38:17.089Z,1008.74
2022-08-05T09:39:00.725Z,1008.79
2022-08-05T09:40:00.749Z,1008.78
2022-08-05T09:41:00.731Z,1008.78
2022-08-05T09:42:00.758Z,1008.71
2022-08-05T09:43:00.786Z,1008.66
2022-08-05T09:44:00.811Z,1008.62
2022-08-05T09:45:17.737Z,1008.56
2022-08-05T09:46:07.887Z,1008.44
2022-08-05T09:47:00.890Z,1008.32
2022-08-05T09:48:00.915Z,1008.17
2022-08-05T09:49:07.792Z,1008.10
2022-08-05T09:50:03.320Z,1008.10
2022-08-05T09:51:01.004Z,1008.14
2022-08-05T09:52:01.023Z,1008.15
2022-08-05T09:53:01.179Z,1008.13
2022-08-05T09:54:01.083Z,1008.06
2022-08-05T09:55:55.438Z,1008.10
2022-08-05T09:56:11.378Z,1008.01
2022-08-05T09:57:01.965Z,1007.98
2022-08-05T09:58:01.178Z,1007.98
2022-08-05T09:59:01.208Z,1007.91
2022-08-05T10:00:04.728Z,1007.86
2022-08-05T10:01:01.257Z,1007.81
2022-08-05T10:02:01.286Z,1007.74
2022-08-05T10:03:01.321Z,1007.63
2022-08-05T10:04:01.335Z,1007.52
2022-08-05T10:05:01.359Z,1007.56
2022-08-05T10:06:03.672Z,1007.65
2022-08-05T10:07:01.463Z,1007.74
2022-08-05T10:08:34.918Z,1007.85
2022-08-05T10:09:01.461Z,1007.91
2022-08-05T10:10:15.222Z,1007.94
2022-08-05T10:11:01.514Z,1007.87
2022-08-05T10:12:04.827Z,1007.87
2022-08-05T10:13:01.561Z,1007.85
2022-08-05T10:14:01.592Z,1007.92
2022-08-05T10:15:01.611Z,1008.00
2022-08-05T10:16:01.640Z,1008.18
2022-08-05T10:17:01.662Z,1008.33
2022-08-05T10:18:01.689Z,1008.44
2022-08-05T10:19:01.714Z,1008.33
2022-08-05T10:20:04.470Z,1008.19
2022-08-05T10:21:08.500Z,1008.10
2022-08-05T10:22:01.790Z,1008.12
2022-08-05T10:23:01.814Z,1008.15
2022-08-05T10:24:05.105Z,1008.23
2022-08-05T10:25:01.867Z,1008.29
2022-08-05T10:26:01.895Z,1008.34
2022-08-05T10:27:01.961Z,1008.38
2022-08-05T10:28:13.857Z,1008.41
2022-08-05T10:29:02.022Z,1008.48
2022-08-05T10:30:41.365Z,1008.55
2022-08-05T10:32:48.444Z,1008.54
2022-08-05T10:32:51.904Z,1008.59
2022-08-05T10:33:02.965Z,1008.61
2022-08-05T10:34:02.095Z,1008.64
2022-08-05T10:35:02.122Z,1008.71
2022-08-05T10:36:02.145Z,1008.80
2022-08-05T10:37:02.170Z,1008.81
2022-08-05T10:38:02.199Z,1008.82
2022-08-05T10:39:05.285Z,1008.79
2022-08-05T10:40:16.652Z,1008.71
2022-08-05T10:41:02.349Z,1008.65
2022-08-05T10:42:02.298Z,1008.58
2022-08-05T10:43:02.323Z,1008.56
2022-08-05T10:44:02.349Z,1008.47
2022-08-05T10:45:02.374Z,1008.52
2022-08-05T10:46:06.193Z,1008.51
2022-08-05T10:47:02.425Z,1008.49
2022-08-05T10:48:29.808Z,1008.46
2022-08-05T10:49:10.175Z,1008.54
2022-08-05T10:50:31.777Z,1008.59
2022-08-05T10:51:03.424Z,1008.60
2022-08-05T10:52:04.995Z,1008.60
2022-08-05T10:53:02.573Z,1008.63
2022-08-05T10:54:05.777Z,1008.60
2022-08-05T10:55:02.629Z,1008.58
2022-08-05T10:56:05.034Z,1008.52
2022-08-05T10:57:02.676Z,1008.50
2022-08-05T10:58:02.699Z,1008.45
2022-08-05T10:59:06.945Z,1008.44
2022-08-05T11:00:09.119Z,1008.40
2022-08-05T11:01:03.270Z,1008.40
2022-08-05T11:02:05.099Z,1008.39
2022-08-05T11:03:23.087Z,1008.42
2022-08-05T11:04:02.878Z,1008.41
2022-08-05T11:05:02.878Z,1008.37
2022-08-05T11:06:03.865Z,1008.42
2022-08-05T11:07:02.931Z,1008.36
2022-08-05T11:08:12.709Z,1008.35
2022-08-05T11:09:02.984Z,1008.38
2022-08-05T11:10:09.499Z,1008.40
2022-08-05T11:11:06.967Z,1008.39
2022-08-05T11:12:03.060Z,1008.44
2022-08-05T11:13:03.087Z,1008.52
2022-08-05T11:14:03.115Z,1008.50
2022-08-05T11:15:19.004Z,1008.57
2022-08-05T11:16:03.163Z,1008.61
2022-08-05T11:17:53.233Z,1008.65
2022-08-05T11:18:05.792Z,1008.60
2022-08-05T11:19:03.247Z,1008.48
2022-08-05T11:20:16.575Z,1008.50
2022-08-05T11:21:11.204Z,1008.49
2022-08-05T11:22:03.330Z,1008.47
2022-08-05T11:23:08.793Z,1008.50
2022-08-05T11:24:14.673Z,1008.62
2022-08-05T11:26:03.396Z,1008.67
2022-08-05T11:26:08.880Z,1008.62
2022-08-05T11:27:03.484Z,1008.64
2022-08-05T11:28:03.504Z,1008.62
2022-08-05T11:29:11.665Z,1008.61
2022-08-05T11:30:03.565Z,1008.62
2022-08-05T11:31:06.581Z,1008.59
2022-08-05T11:32:03.651Z,1008.55
2022-08-05T11:33:03.658Z,1008.66
2022-08-05T11:34:03.689Z,1008.53
2022-08-05T11:35:03.721Z,1008.78
2022-08-05T11:36:08.213Z,1008.59
2022-08-05T11:37:06.309Z,1008.56
2022-08-05T11:38:28.003Z,1008.57
2022-08-05T11:39:03.910Z,1008.59
2022-08-05T11:40:04.608Z,1008.80
2022-08-05T11:41:34.366Z,1008.68
2022-08-05T11:42:04.560Z,1008.83
2022-08-05T11:43:03.978Z,1008.71
2022-08-05T11:44:07.559Z,1008.71
2022-08-05T11:45:05.316Z,1008.72
2022-08-05T11:46:14.878Z,1008.69
2022-08-05T11:47:10.974Z,1008.63
2022-08-05T11:48:04.139Z,1008.67
2022-08-05T11:49:04.174Z,1008.62
2022-08-05T11:50:04.212Z,1008.51
2022-08-05T11:51:04.240Z,1008.47
2022-08-05T11:52:08.673Z,1008.59
2022-08-05T11:53:04.309Z,1008.59
2022-08-05T11:54:04.342Z,1008.58
2022-08-05T11:55:07.046Z,1008.68
2022-08-05T11:56:04.413Z,1008.68
2022-08-05T11:57:08.078Z,1008.67
2022-08-05T11:58:10.521Z,1008.66
2022-08-05T11:59:04.523Z,1008.63
2022-08-05T12:00:04.556Z,1008.61
2022-08-05T12:01:04.633Z,1008.57
2022-08-05T12:02:04.634Z,1008.51
2022-08-05T12:03:04.688Z,1008.48
2022-08-05T12:04:04.689Z,1008.36
2022-08-05T12:05:07.344Z,1008.46
2022-08-05T12:06:06.686Z,1008.46
2022-08-05T12:07:04.796Z,1008.48